Time;durP1;ratioP1;P1;durP2;ratioP2;P2;SDS_P1;SDS_P2;PMS_P1;PMS_P2;Temp;Humidity;BMP_temperature;BMP_pressure;BME280_temperature;BME280_humidity;BME280_pressure;Samples;Min_cycle;Max_cycle;Signal;HPM_P1;HPM_P2
2022/12/22 03:28:08;;;;;;;0.60;0.60;;;9.80;99.90;;;;;;4943802;28;19925;-84
2022/12/22 03:30:35;;;;;;;0.60;0.60;;;9.90;99.90;;;;;;4955917;28;20057;-84
2022/12/22 03:33:01;;;;;;;0.60;0.60;;;9.80;99.90;;;;;;4955315;28;20747;-84
2022/12/22 03:35:27;;;;;;;0.50;0.50;;;9.90;99.90;;;;;;4923807;28;20072;-84
2022/12/22 03:37:53;;;;;;;0.50;0.50;;;9.90;99.90;;;;;;4936961;28;20045;-84
2022/12/22 03:40:19;;;;;;;0.50;0.50;;;9.90;99.90;;;;;;4946217;28;20115;-83
2022/12/22 03:48:14;;;;;;;0.50;0.50;;;9.80;99.90;;;;;;4936588;28;20096;-84
2022/12/22 03:50:40;;;;;;;0.50;0.50;;;9.80;99.90;;;;;;4940496;28;20113;-83
2022/12/22 03:53:05;;;;;;;0.50;0.50;;;9.80;99.90;;;;;;4944578;28;20052;-84
2022/12/22 03:55:31;;;;;;;0.60;0.60;;;9.90;99.90;;;;;;4939206;28;20830;-83
2022/12/22 03:57:57;;;;;;;0.60;0.60;;;9.90;99.90;;;;;;4946630;28;20041;-83
2022/12/22 04:00:23;;;;;;;0.70;0.70;;;9.90;99.90;;;;;;4904895;28;20103;-83
2022/12/22 04:03:08;;;;;;;0.50;0.50;;;9.90;99.90;;;;;;4939958;28;20942;-83
2022/12/22 04:05:34;;;;;;;0.50;0.50;;;9.90;99.90;;;;;;4947933;28;20049;-84
2022/12/22 04:08:01;;;;;;;0.50;0.50;;;9.80;99.90;;;;;;4941013;28;20442;-84
2022/12/22 04:13:11;;;;;;;0.50;0.50;;;9.90;99.90;;;;;;4931705;28;20076;-84
2022/12/22 04:15:37;;;;;;;0.50;0.50;;;9.80;99.90;;;;;;4941574;28;20098;-84
2022/12/22 04:18:03;;;;;;;0.50;0.50;;;9.90;99.90;;;;;;4945559;28;20081;-83
2022/12/22 04:20:29;;;;;;;0.60;0.60;;;9.90;99.90;;;;;;4911883;28;20088;-84
2022/12/22 04:22:56;;;;;;;0.50;0.50;;;9.80;99.90;;;;;;4923530;28;20470;-84
2022/12/22 04:25:23;;;;;;;7.20;6.82;;;9.90;99.90;;;;;;4946698;28;20583;-84
2022/12/22 04:27:49;;;;;;;0.50;0.50;;;9.90;99.90;;;;;;4959058;28;20066;-84
2022/12/22 04:30:15;;;;;;;0.60;0.60;;;9.80;99.90;;;;;;4939588;28;20045;-84
2022/12/22 04:32:41;;;;;;;0.50;0.50;;;9.80;99.90;;;;;;4948629;28;20056;-84
2022/12/22 04:35:08;;;;;;;0.60;0.60;;;9.80;99.90;;;;;;4939873;28;20414;-84
2022/12/22 04:37:34;;;;;;;0.50;0.50;;;9.80;99.90;;;;;;4943819;28;20494;-84
2022/12/22 04:40:00;;;;;;;0.50;0.50;;;9.90;99.90;;;;;;4938394;28;20045;-84
2022/12/22 04:42:26;;;;;;;0.50;0.50;;;9.90;99.90;;;;;;4937482;28;20063;-84
2022/12/22 04:44:53;;;;;;;0.60;0.60;;;9.80;99.90;;;;;;4943675;28;20366;-84
2022/12/22 04:47:20;;;;;;;0.60;0.60;;;9.80;99.90;;;;;;4944438;28;20044;-84
2022/12/22 04:49:45;;;;;;;0.50;0.50;;;9.90;99.90;;;;;;4951235;28;20540;-84
2022/12/22 04:52:11;;;;;;;0.50;0.50;;;9.90;99.90;;;;;;4947077;28;20061;-84
2022/12/22 04:54:37;;;;;;;0.60;0.60;;;9.90;99.90;;;;;;4931831;28;20207;-84
2022/12/22 04:57:03;;;;;;;0.60;0.60;;;9.90;99.90;;;;;;4938233;28;20059;-84
2022/12/22 04:59:29;;;;;;;0.50;0.50;;;9.80;99.90;;;;;;4942844;28;20103;-84
2022/12/22 05:01:55;;;;;;;0.60;0.60;;;9.90;99.90;;;;;;4940842;28;20136;-84
2022/12/22 05:04:21;;;;;;;0.50;0.50;;;9.80;99.90;;;;;;4923493;28;20053;-84
2022/12/22 05:06:47;;;;;;;0.50;0.50;;;9.80;99.90;;;;;;4948704;28;20053;-84
2022/12/22 05:09:13;;;;;;;0.50;0.50;;;9.80;99.90;;;;;;4938690;28;20046;-84
2022/12/22 05:11:38;;;;;;;0.50;0.50;;;9.90;99.90;;;;;;4941976;28;20471;-84
2022/12/22 05:14:05;;;;;;;0.50;0.50;;;9.90;99.90;;;;;;4935965;28;20053;-84
2022/12/22 05:16:31;;;;;;;0.50;0.50;;;9.90;99.90;;;;;;4946703;28;20037;-84
2022/12/22 05:18:56;;;;;;;0.60;0.60;;;9.90;99.90;;;;;;4915295;28;20494;-84
2022/12/22 05:21:22;;;;;;;0.50;0.50;;;9.90;99.90;;;;;;4921293;28;20375;-84
2022/12/22 05:23:49;;;;;;;0.50;0.50;;;9.90;99.90;;;;;;4923679;28;20048;-85
2022/12/22 05:26:17;;;;;;;0.60;0.60;;;9.90;99.90;;;;;;4940585;28;20136;-84
2022/12/22 05:28:48;;;;;;;0.50;0.50;;;9.80;99.90;;;;;;4943389;28;20092;-85
2022/12/22 05:31:17;;;;;;;0.50;0.50;;;9.90;99.90;;;;;;4927732;28;20447;-85
2022/12/22 05:33:43;;;;;;;0.60;0.60;;;9.80;99.90;;;;;;4936715;28;20071;-84
2022/12/22 05:36:09;;;;;;;0.52;0.52;;;9.90;99.90;;;;;;4946896;28;20072;-85
2022/12/22 05:38:35;;;;;;;0.50;0.50;;;9.90;99.90;;;;;;4949565;28;20044;-84
2022/12/22 05:41:01;;;;;;;0.60;0.60;;;9.80;99.90;;;;;;4937624;28;20615;-84
2022/12/22 05:43:27;;;;;;;0.60;0.60;;;9.90;99.90;;;;;;4943331;28;20049;-85
2022/12/22 05:45:52;;;;;;;0.50;0.50;;;9.80;99.90;;;;;;4949663;28;20052;-85
2022/12/22 05:48:19;;;;;;;0.55;0.55;;;9.90;99.90;;;;;;4953695;28;20448;-85
2022/12/22 05:50:45;;;;;;;0.50;0.50;;;9.90;99.90;;;;;;4948383;28;20076;-84
2022/12/22 05:53:12;;;;;;;0.50;0.50;;;9.90;99.90;;;;;;4945157;28;21095;-85
2022/12/22 05:55:37;;;;;;;0.52;0.52;;;9.80;99.90;;;;;;4945396;28;20186;-84
2022/12/22 05:58:03;;;;;;;0.50;0.50;;;9.90;99.90;;;;;;4947526;28;20049;-84
2022/12/22 06:00:30;;;;;;;0.60;0.60;;;9.90;99.90;;;;;;4932402;28;20552;-84
2022/12/22 06:02:57;;;;;;;0.50;0.50;;;9.90;99.90;;;;;;4944853;28;20053;-84
2022/12/22 06:05:26;;;;;;;0.50;0.50;;;9.90;99.90;;;;;;4945121;28;20137;-84
2022/12/22 06:07:52;;;;;;;0.75;0.75;;;9.90;99.90;;;;;;4943521;28;20106;-84
2022/12/22 06:10:18;;;;;;;0.50;0.50;;;9.90;99.90;;;;;;4940047;28;20491;-84
2022/12/22 06:12:44;;;;;;;0.50;0.50;;;9.90;99.90;;;;;;4953998;28;20053;-85
2022/12/22 06:15:12;;;;;;;0.50;0.50;;;9.90;99.90;;;;;;4953762;28;20407;-84
2022/12/22 06:17:38;;;;;;;0.60;0.60;;;9.90;99.90;;;;;;4955577;28;20049;-84
2022/12/22 06:20:07;;;;;;;0.50;0.50;;;9.90;99.90;;;;;;4935650;28;20783;-84
2022/12/22 06:22:34;;;;;;;0.50;0.50;;;9.90;99.90;;;;;;4941433;28;20560;-84
2022/12/22 06:25:00;;;;;;;0.60;0.60;;;9.90;99.90;;;;;;4961359;28;20045;-84
2022/12/22 06:27:26;;;;;;;0.60;0.60;;;10.00;99.90;;;;;;4950596;28;20160;-85
2022/12/22 06:29:52;;;;;;;0.60;0.60;;;9.80;99.90;;;;;;4953860;28;20052;-84
2022/12/22 06:32:18;;;;;;;0.50;0.50;;;9.90;99.90;;;;;;4942529;28;20843;-84
2022/12/22 06:34:44;;;;;;;0.60;0.60;;;9.80;99.90;;;;;;4937383;28;20049;-84
2022/12/22 06:37:10;;;;;;;0.50;0.50;;;9.80;99.90;;;;;;4952855;28;20052;-84
2022/12/22 06:39:36;;;;;;;0.50;0.50;;;9.70;99.90;;;;;;4940277;28;20064;-85
2022/12/22 06:44:49;;;;;;;0.60;0.60;;;9.80;99.90;;;;;;4950936;28;20111;-84
2022/12/22 06:47:16;;;;;;;0.60;0.60;;;9.70;99.90;;;;;;4958721;28;20111;-84
2022/12/22 06:49:41;;;;;;;0.50;0.50;;;9.70;99.90;;;;;;4934496;28;20456;-84
2022/12/22 06:52:08;;;;;;;0.50;0.50;;;9.80;99.90;;;;;;4948108;28;20261;-85
2022/12/22 06:54:34;;;;;;;0.50;0.50;;;9.80;99.90;;;;;;4931430;28;20057;-85
2022/12/22 06:57:00;;;;;;;0.50;0.50;;;9.90;99.90;;;;;;4930749;28;20076;-85
2022/12/22 06:59:25;;;;;;;0.50;0.50;;;9.90;99.90;;;;;;4935591;28;20208;-84
2022/12/22 07:01:51;;;;;;;0.50;0.50;;;9.90;99.90;;;;;;4948217;28;20049;-84
2022/12/22 07:04:19;;;;;;;0.55;0.55;;;9.90;99.90;;;;;;4947634;28;20581;-84
2022/12/22 07:06:46;;;;;;;0.50;0.50;;;9.90;99.90;;;;;;4933729;28;20044;-84
2022/12/22 07:09:12;;;;;;;0.50;0.50;;;9.90;99.90;;;;;;4950737;28;20048;-84
2022/12/22 07:11:38;;;;;;;0.50;0.50;;;9.90;99.90;;;;;;4950985;28;20089;-84
2022/12/22 07:14:04;;;;;;;0.50;0.50;;;9.90;99.90;;;;;;4931997;28;20874;-84
2022/12/22 07:16:30;;;;;;;0.50;0.50;;;10.00;99.90;;;;;;4952280;28;20737;-84
2022/12/22 07:18:56;;;;;;;0.50;0.50;;;10.00;99.90;;;;;;4950106;28;20548;-84
2022/12/22 07:21:22;;;;;;;0.50;0.50;;;10.00;99.90;;;;;;4952592;28;20049;-85
2022/12/22 07:23:47;;;;;;;0.50;0.50;;;10.00;99.90;;;;;;4939371;28;20052;-84
2022/12/22 07:26:14;;;;;;;0.60;0.60;;;10.00;99.90;;;;;;4948000;28;20451;-84
2022/12/22 07:28:40;;;;;;;0.50;0.50;;;9.90;99.90;;;;;;4947232;28;20049;-84
2022/12/22 07:31:09;;;;;;;0.60;0.60;;;10.00;99.90;;;;;;4963810;28;20544;-84
2022/12/22 07:33:35;;;;;;;0.60;0.60;;;9.90;99.90;;;;;;4968029;28;20382;-84
2022/12/22 07:36:13;;;;;;;0.50;0.50;;;9.90;99.90;;;;;;4928363;28;20049;-83
2022/12/22 07:38:41;;;;;;;0.60;0.60;;;9.90;99.90;;;;;;4965366;28;20414;-84
2022/12/22 07:43:54;;;;;;;0.50;0.50;;;9.90;99.90;;;;;;4942506;28;20106;-84
2022/12/22 07:46:21;;;;;;;0.50;0.50;;;9.90;99.90;;;;;;4940671;28;20409;-84
2022/12/22 07:51:36;;;;;;;0.50;0.50;;;9.70;99.90;;;;;;4935849;28;20048;-83
2022/12/22 07:54:04;;;;;;;0.57;0.57;;;9.50;99.90;;;;;;4941888;28;20514;-84
2022/12/22 07:56:30;;;;;;;0.60;0.60;;;9.60;99.90;;;;;;4928558;28;20174;-83
2022/12/22 07:58:57;;;;;;;0.50;0.50;;;9.50;99.90;;;;;;4947585;28;20550;-86
2022/12/22 08:01:23;;;;;;;0.50;0.50;;;9.30;99.90;;;;;;4928743;28;20049;-82
2022/12/22 08:03:49;;;;;;;0.50;0.50;;;9.10;99.90;;;;;;4930536;28;21087;-84
2022/12/22 08:06:15;;;;;;;0.60;0.60;;;9.10;99.90;;;;;;4941391;28;20049;-86
2022/12/22 08:08:40;;;;;;;0.60;0.60;;;9.10;99.90;;;;;;4944389;28;20498;-85
2022/12/22 08:11:06;;;;;;;0.50;0.50;;;9.10;99.90;;;;;;4953144;28;20557;-85
2022/12/22 08:13:33;;;;;;;0.60;0.60;;;9.00;99.90;;;;;;4936871;28;20914;-84
2022/12/22 08:16:04;;;;;;;0.60;0.60;;;8.90;99.90;;;;;;4949788;28;20049;-85
2022/12/22 08:18:31;;;;;;;0.60;0.60;;;8.90;99.90;;;;;;4952225;28;20373;-86
2022/12/22 08:20:58;;;;;;;0.60;0.60;;;8.90;99.90;;;;;;4934052;28;20073;-85
2022/12/22 08:23:23;;;;;;;0.60;0.60;;;8.80;99.90;;;;;;4945541;28;20550;-86
2022/12/22 08:26:05;;;;;;;0.60;0.60;;;8.70;99.90;;;;;;4925601;28;20048;-85
2022/12/22 08:28:34;;;;;;;0.60;0.60;;;8.70;99.90;;;;;;4956682;28;20100;-84
2022/12/22 08:31:01;;;;;;;0.60;0.60;;;8.70;99.90;;;;;;4950958;28;20567;-84
2022/12/22 08:33:26;;;;;;;0.60;0.60;;;8.70;99.90;;;;;;4956010;28;20044;-85
2022/12/22 08:35:55;;;;;;;0.60;0.60;;;8.70;99.90;;;;;;4931445;28;20906;-84
2022/12/22 08:38:21;;;;;;;0.60;0.60;;;8.60;99.90;;;;;;4931917;28;20660;-84
2022/12/22 08:40:48;;;;;;;0.52;0.52;;;8.60;99.90;;;;;;4950762;28;20052;-84
2022/12/22 08:43:15;;;;;;;0.60;0.60;;;8.60;99.90;;;;;;4932154;28;20171;-85
2022/12/22 08:45:41;;;;;;;0.60;0.60;;;8.70;99.90;;;;;;4950271;28;20060;-85
2022/12/22 08:48:09;;;;;;;0.50;0.50;;;8.80;99.90;;;;;;4928409;28;20303;-86
2022/12/22 08:50:35;;;;;;;0.60;0.60;;;8.90;99.90;;;;;;4951728;28;20060;-83
2022/12/22 08:53:05;;;;;;;0.60;0.60;;;9.10;99.90;;;;;;4950961;28;20124;-84
2022/12/22 08:55:31;;;;;;;0.50;0.50;;;9.10;99.90;;;;;;4935968;28;20049;-84
2022/12/22 08:57:57;;;;;;;0.60;0.60;;;9.00;99.90;;;;;;4956012;28;20095;-84
2022/12/22 09:00:23;;;;;;;0.60;0.60;;;9.00;99.90;;;;;;4933274;28;20049;-86
2022/12/22 09:02:49;;;;;;;0.50;0.50;;;9.00;99.90;;;;;;4949946;28;20049;-85
2022/12/22 09:05:15;;;;;;;0.60;0.60;;;9.10;99.90;;;;;;4940422;28;20050;-84
2022/12/22 09:07:41;;;;;;;0.60;0.60;;;9.10;99.90;;;;;;4943043;28;20122;-84
2022/12/22 09:10:09;;;;;;;0.52;0.52;;;9.10;99.90;;;;;;4949165;28;20056;-85
2022/12/22 09:12:36;;;;;;;0.60;0.60;;;9.10;99.90;;;;;;4950685;28;20042;-86
2022/12/22 09:15:03;;;;;;;0.60;0.60;;;9.10;99.90;;;;;;4945548;28;20081;-85
2022/12/22 09:17:28;;;;;;;0.60;0.60;;;9.10;99.90;;;;;;4941810;28;20268;-84
2022/12/22 09:19:54;;;;;;;0.60;0.60;;;9.00;99.90;;;;;;4929166;28;20435;-82
2022/12/22 09:22:20;;;;;;;0.60;0.60;;;9.00;99.90;;;;;;4919980;28;20054;-86
2022/12/22 09:24:46;;;;;;;0.60;0.60;;;9.00;99.90;;;;;;4932156;28;20390;-85
2022/12/22 09:27:12;;;;;;;0.60;0.60;;;9.10;99.90;;;;;;4942433;28;20064;-85
2022/12/22 09:29:39;;;;;;;0.60;0.60;;;9.00;99.90;;;;;;4932415;28;20439;-85
2022/12/22 09:32:06;;;;;;;0.60;0.60;;;9.00;99.90;;;;;;4947164;28;20490;-84
2022/12/22 09:34:32;;;;;;;0.60;0.60;;;9.00;99.90;;;;;;4936228;28;20045;-86
2022/12/22 09:36:57;;;;;;;0.60;0.60;;;8.90;99.90;;;;;;4949129;28;20045;-85
2022/12/22 09:39:23;;;;;;;0.60;0.60;;;8.90;99.90;;;;;;4929317;28;20448;-86
2022/12/22 09:41:55;;;;;;;0.60;0.60;;;8.90;99.90;;;;;;4932513;28;20469;-86
2022/12/22 09:44:36;;;;;;;0.60;0.60;;;8.80;99.90;;;;;;4929505;28;20456;-84
2022/12/22 09:47:11;;;;;;;0.60;0.60;;;8.90;99.90;;;;;;4955734;28;20037;-85
2022/12/22 09:49:37;;;;;;;0.60;0.60;;;8.90;99.90;;;;;;4946592;28;21036;-85
2022/12/22 09:52:04;;;;;;;0.60;0.60;;;8.80;99.90;;;;;;4938387;28;20045;-85
2022/12/22 09:54:30;;;;;;;0.60;0.60;;;8.80;99.90;;;;;;4936756;28;20056;-86
2022/12/22 09:56:56;;;;;;;0.60;0.60;;;8.80;99.90;;;;;;4937729;28;20052;-85
2022/12/22 09:59:27;;;;;;;0.60;0.60;;;8.80;99.90;;;;;;4952964;28;20057;-85
2022/12/22 10:05:25;;;;;;;0.60;0.60;;;8.70;99.90;;;;;;4952694;28;20649;-84
2022/12/22 10:07:51;;;;;;;0.60;0.60;;;8.60;99.90;;;;;;4958928;28;20829;-86
2022/12/22 10:10:26;;;;;;;0.60;0.60;;;8.60;99.90;;;;;;4957711;28;20045;-86
2022/12/22 10:12:57;;;;;;;0.60;0.60;;;8.80;99.90;;;;;;4952543;28;21057;-86
2022/12/22 10:15:24;;;;;;;0.60;0.60;;;8.70;99.90;;;;;;4951459;28;20115;-86
2022/12/22 10:17:52;;;;;;;0.60;0.60;;;8.90;99.90;;;;;;4932116;28;20295;-84
2022/12/22 10:20:21;;;;;;;0.60;0.60;;;9.10;99.90;;;;;;4956128;28;20159;-85
2022/12/22 10:22:51;;;;;;;0.60;0.60;;;9.30;99.90;;;;;;4947620;28;20165;-84
2022/12/22 10:25:31;;;;;;;0.60;0.60;;;9.30;99.90;;;;;;4934284;28;20768;-83
2022/12/22 10:28:00;;;;;;;0.60;0.60;;;9.10;99.90;;;;;;4949838;28;20065;-84
2022/12/22 10:30:32;;;;;;;0.60;0.60;;;9.10;99.90;;;;;;4952529;28;20045;-83
2022/12/22 10:33:02;;;;;;;0.50;0.50;;;9.20;99.90;;;;;;4949745;28;20051;-86
2022/12/22 10:35:49;;;;;;;0.60;0.60;;;9.10;99.90;;;;;;4955512;28;20960;-86
2022/12/22 10:38:30;;;;;;;0.60;0.60;;;9.10;99.90;;;;;;4939727;28;20628;-86
2022/12/22 10:41:00;;;;;;;0.60;0.60;;;9.10;99.90;;;;;;4952221;28;20453;-85
2022/12/22 10:43:36;;;;;;;0.60;0.60;;;9.10;99.90;;;;;;4938301;28;20453;-87
2022/12/22 10:46:03;;;;;;;0.60;0.60;;;9.00;99.90;;;;;;4959690;28;20514;-85
2022/12/22 10:48:31;;;;;;;0.60;0.60;;;9.00;99.90;;;;;;4958562;28;20709;-85
2022/12/22 10:50:58;;;;;;;0.60;0.60;;;9.10;99.90;;;;;;4952921;28;20045;-83
2022/12/22 10:53:51;;;;;;;0.60;0.60;;;9.10;99.90;;;;;;4953217;28;20049;-85
2022/12/22 10:56:27;;;;;;;0.60;0.60;;;9.20;99.90;;;;;;4949373;28;20111;-87
2022/12/22 10:58:55;;;;;;;0.60;0.60;;;9.40;99.90;;;;;;4948999;28;20182;-84
2022/12/22 11:01:33;;;;;;;0.60;0.60;;;9.60;99.90;;;;;;4953847;28;20084;-85
2022/12/22 11:04:23;;;;;;;0.60;0.60;;;9.60;99.90;;;;;;4949286;28;20581;-85
2022/12/22 11:06:50;;;;;;;0.60;0.60;;;9.70;99.90;;;;;;4947316;28;20048;-84
2022/12/22 11:09:16;;;;;;;0.60;0.60;;;9.60;99.90;;;;;;4942323;28;20049;-86
2022/12/22 11:12:23;;;;;;;0.60;0.60;;;9.60;99.90;;;;;;4950269;28;20443;-83
2022/12/22 11:14:52;;;;;;;0.60;0.60;;;9.50;99.90;;;;;;4908892;28;20902;-82
2022/12/22 11:17:36;;;;;;;0.60;0.60;;;9.60;99.90;;;;;;4889755;28;20962;-84
2022/12/22 11:20:23;;;;;;;0.60;0.60;;;9.50;99.90;;;;;;4931735;28;20406;-85
2022/12/22 11:22:52;;;;;;;0.60;0.60;;;9.50;99.90;;;;;;4963366;28;20583;-84
2022/12/22 11:25:35;;;;;;;0.60;0.60;;;9.40;99.90;;;;;;4946142;28;20575;-85
2022/12/22 11:28:04;;;;;;;0.60;0.60;;;9.40;99.90;;;;;;4945083;28;20556;-86
2022/12/22 11:30:47;;;;;;;0.60;0.60;;;9.50;99.90;;;;;;4955285;28;20216;-84
2022/12/22 11:33:32;;;;;;;0.60;0.60;;;9.40;99.90;;;;;;4952605;28;20303;-84
2022/12/22 11:36:12;;;;;;;0.60;0.60;;;9.40;99.90;;;;;;4971593;28;20052;-83
2022/12/22 11:38:53;;;;;;;0.60;0.60;;;9.40;99.90;;;;;;4948963;28;20117;-83
2022/12/22 11:41:47;;;;;;;0.60;0.60;;;9.60;99.90;;;;;;4959860;28;20053;-83
2022/12/22 11:44:25;;;;;;;0.60;0.60;;;9.60;99.90;;;;;;4951220;28;20071;-85
2022/12/22 11:47:15;;;;;;;0.60;0.60;;;9.70;99.90;;;;;;4952141;28;20045;-83
2022/12/22 11:49:56;;;;;;;0.60;0.60;;;9.80;99.90;;;;;;4927001;28;20128;-84
2022/12/22 11:52:24;;;;;;;0.60;0.60;;;9.90;99.90;;;;;;4952648;28;20131;-84
2022/12/22 11:55:02;;;;;;;0.60;0.60;;;10.00;99.90;;;;;;4954854;28;20497;-85
2022/12/22 11:57:32;;;;;;;0.60;0.60;;;10.10;99.90;;;;;;4949401;28;20060;-85
2022/12/22 12:00:07;;;;;;;0.60;0.60;;;10.10;99.90;;;;;;4949001;28;20468;-83
2022/12/22 12:03:14;;;;;;;0.60;0.60;;;10.10;99.90;;;;;;4954313;28;20225;-85
2022/12/22 12:05:59;;;;;;;0.60;0.60;;;10.20;99.90;;;;;;4942686;28;20496;-85
2022/12/22 12:08:57;;;;;;;0.50;0.50;;;10.20;99.90;;;;;;4945266;28;20550;-83
2022/12/22 12:11:31;;;;;;;0.60;0.60;;;10.30;99.90;;;;;;4953122;28;20156;-83
2022/12/22 12:14:20;;;;;;;0.60;0.60;;;10.40;99.90;;;;;;4953633;28;20435;-84
2022/12/22 12:17:01;;;;;;;0.60;0.60;;;10.50;99.90;;;;;;4945125;28;20053;-85
2022/12/22 12:20:07;;;;;;;0.50;0.50;;;10.50;99.90;;;;;;4932086;28;20071;-81
2022/12/22 12:22:57;;;;;;;0.60;0.60;;;10.50;99.90;;;;;;4945197;28;20446;-85
2022/12/22 12:25:59;;;;;;;0.60;0.60;;;10.50;99.90;;;;;;4927117;28;20618;-84
2022/12/22 12:28:34;;;;;;;0.50;0.50;;;10.50;99.90;;;;;;4912098;28;20080;-84
2022/12/22 12:31:00;;;;;;;0.50;0.50;;;10.50;99.90;;;;;;4942395;28;20049;-83
2022/12/22 12:33:43;;;;;;;0.60;0.60;;;10.40;99.90;;;;;;4945505;28;20487;-85
2022/12/22 12:36:21;;;;;;;0.60;0.60;;;10.50;99.90;;;;;;4945345;28;20045;-85
2022/12/22 12:39:11;;;;;;;0.60;0.60;;;10.50;99.90;;;;;;4950015;28;20063;-84
2022/12/22 12:42:06;;;;;;;0.60;0.60;;;10.50;99.90;;;;;;4948926;28;20118;-84
2022/12/22 12:44:34;;;;;;;0.60;0.60;;;10.60;99.90;;;;;;4949467;28;20103;-82
2022/12/22 12:47:23;;;;;;;0.50;0.50;;;10.60;99.90;;;;;;4949611;28;20515;-84
2022/12/22 12:49:52;;;;;;;0.50;0.50;;;10.70;99.90;;;;;;4951990;28;20380;-84
2022/12/22 12:52:42;;;;;;;0.60;0.60;;;10.70;99.90;;;;;;4947522;28;20053;-82
2022/12/22 12:55:37;;;;;;;0.50;0.50;;;10.60;99.90;;;;;;4953650;28;20433;-83
2022/12/22 12:58:04;;;;;;;0.60;0.60;;;10.70;99.90;;;;;;4941161;28;20057;-84
2022/12/22 13:00:33;;;;;;;0.50;0.50;;;10.60;99.90;;;;;;4931634;28;20564;-84
2022/12/22 13:03:00;;;;;;;0.50;0.50;;;10.60;99.90;;;;;;4944547;28;20402;-83
2022/12/22 13:05:35;;;;;;;0.60;0.60;;;10.60;99.90;;;;;;4952176;28;20494;-83
2022/12/22 13:08:17;;;;;;;0.50;0.50;;;10.70;99.90;;;;;;4951614;28;20519;-84
2022/12/22 13:10:52;;;;;;;0.50;0.50;;;10.70;99.90;;;;;;4943942;28;20131;-81
2022/12/22 13:13:20;;;;;;;0.60;0.60;;;10.70;99.90;;;;;;4943935;28;20436;-83
2022/12/22 13:15:59;;;;;;;0.50;0.50;;;10.70;99.90;;;;;;4950256;28;20041;-83
2022/12/22 13:18:24;;;;;;;0.50;0.50;;;10.80;99.90;;;;;;4949225;28;20677;-83
2022/12/22 13:21:14;;;;;;;0.52;0.52;;;10.90;99.90;;;;;;4927316;28;20511;-83
2022/12/22 13:24:02;;;;;;;0.50;0.50;;;10.90;99.90;;;;;;4929599;28;20060;-83
2022/12/22 13:26:37;;;;;;;0.60;0.60;;;10.90;99.90;;;;;;4948085;28;20812;-83
2022/12/22 13:29:07;;;;;;;0.50;0.50;;;10.90;99.90;;;;;;4934599;28;20279;-84
2022/12/22 13:31:41;;;;;;;0.50;0.50;;;10.90;99.90;;;;;;4943531;28;21180;-84
2022/12/22 13:34:39;;;;;;;0.50;0.50;;;10.90;99.90;;;;;;4966833;28;20817;-84
2022/12/22 13:37:12;;;;;;;0.50;0.50;;;10.80;99.90;;;;;;4949461;28;20595;-84
2022/12/22 13:39:38;;;;;;;0.50;0.50;;;10.80;99.90;;;;;;4956332;28;20052;-83
2022/12/22 13:42:06;;;;;;;0.50;0.50;;;10.80;99.90;;;;;;4940011;28;20497;-84
2022/12/22 13:44:33;;;;;;;0.60;0.60;;;10.80;99.90;;;;;;4945079;28;20076;-83
2022/12/22 13:47:05;;;;;;;0.50;0.50;;;10.70;99.90;;;;;;4939285;28;20042;-84
2022/12/22 13:49:33;;;;;;;0.50;0.50;;;10.80;99.90;;;;;;4951969;28;20407;-82
2022/12/22 13:52:00;;;;;;;0.50;0.50;;;10.70;99.90;;;;;;4948735;28;20064;-83
2022/12/22 13:54:31;;;;;;;0.60;0.60;;;10.50;99.90;;;;;;4952953;28;20064;-83
2022/12/22 13:56:59;;;;;;;0.57;0.57;;;10.50;99.90;;;;;;4952279;28;20041;-83
2022/12/22 13:59:33;;;;;;;0.55;0.55;;;10.60;99.90;;;;;;4951153;28;20454;-83
2022/12/22 14:02:14;;;;;;;0.50;0.50;;;10.50;99.90;;;;;;4949419;28;20410;-84
2022/12/22 14:04:43;;;;;;;0.60;0.60;;;10.50;99.90;;;;;;4948816;28;20055;-83
2022/12/22 14:07:15;;;;;;;0.50;0.50;;;10.40;99.90;;;;;;4961007;28;20130;-83
2022/12/22 14:09:54;;;;;;;0.60;0.60;;;10.30;99.90;;;;;;4954550;28;20492;-83
2022/12/22 14:12:23;;;;;;;0.50;0.50;;;10.20;99.90;;;;;;4944713;28;20049;-83
2022/12/22 14:14:52;;;;;;;0.55;0.55;;;10.00;99.90;;;;;;4950961;28;20080;-82
2022/12/22 14:17:28;;;;;;;0.60;0.60;;;9.90;99.90;;;;;;4946598;28;20470;-83
2022/12/22 14:19:58;;;;;;;0.60;0.60;;;9.70;99.90;;;;;;4943569;28;20127;-83
2022/12/22 14:22:35;;;;;;;0.50;0.50;;;9.60;99.90;;;;;;4948243;28;20511;-83
2022/12/22 14:25:11;;;;;;;0.60;0.60;;;9.60;99.90;;;;;;4951601;28;20140;-83
2022/12/22 14:27:46;;;;;;;0.60;0.60;;;9.50;99.90;;;;;;4938820;28;20575;-82
2022/12/22 14:30:18;;;;;;;4.30;4.10;;;9.40;99.90;;;;;;4945390;28;20484;-82
2022/12/22 14:32:50;;;;;;;0.60;0.60;;;9.30;99.90;;;;;;4929936;28;21054;-82
2022/12/22 14:35:23;;;;;;;0.60;0.60;;;9.20;99.90;;;;;;4943166;28;20755;-83
2022/12/22 14:37:54;;;;;;;0.60;0.60;;;9.10;99.90;;;;;;4955742;28;20044;-81
2022/12/22 14:40:32;;;;;;;0.60;0.60;;;9.00;99.90;;;;;;4948398;28;21220;-84
2022/12/22 14:43:00;;;;;;;0.60;0.60;;;8.90;99.90;;;;;;4945926;28;20087;-83
2022/12/22 14:45:26;;;;;;;0.60;0.60;;;8.80;99.90;;;;;;4947187;28;20666;-82
2022/12/22 14:47:54;;;;;;;0.60;0.60;;;8.70;99.90;;;;;;4944038;28;20883;-83
2022/12/22 14:50:23;;;;;;;0.60;0.60;;;8.70;99.90;;;;;;4925944;28;20573;-81
2022/12/22 14:53:03;;;;;;;0.60;0.60;;;8.60;99.90;;;;;;4924174;28;20053;-81
2022/12/22 14:55:37;;;;;;;0.60;0.60;;;8.50;99.90;;;;;;4948799;28;20045;-84
2022/12/22 14:58:09;;;;;;;0.60;0.60;;;8.50;99.90;;;;;;4942684;28;20060;-83
2022/12/22 15:00:38;;;;;;;0.60;0.60;;;8.30;99.90;;;;;;4952460;28;21035;-83
2022/12/22 15:03:25;;;;;;;0.60;0.60;;;8.30;99.90;;;;;;4944656;28;20069;-82
2022/12/22 15:05:52;;;;;;;0.60;0.60;;;8.30;99.90;;;;;;4940215;28;20386;-82
2022/12/22 15:08:36;;;;;;;0.60;0.60;;;8.30;99.90;;;;;;4920901;28;20604;-82
2022/12/22 15:11:07;;;;;;;0.60;0.60;;;8.20;99.90;;;;;;4952584;28;20127;-82
2022/12/22 15:13:33;;;;;;;0.60;0.60;;;8.20;99.90;;;;;;4947250;28;20360;-82
2022/12/22 15:15:58;;;;;;;0.60;0.60;;;8.20;99.90;;;;;;4928061;28;20041;-82
2022/12/22 15:18:26;;;;;;;0.60;0.60;;;8.30;99.90;;;;;;4950580;28;20557;-83
2022/12/22 15:20:53;;;;;;;0.60;0.60;;;8.30;99.90;;;;;;4970968;28;20055;-82
2022/12/22 15:23:19;;;;;;;0.60;0.60;;;8.30;99.90;;;;;;4946502;28;20561;-81
2022/12/22 15:25:45;;;;;;;0.60;0.60;;;8.30;99.90;;;;;;4954408;28;20048;-82
2022/12/22 15:28:12;;;;;;;0.60;0.60;;;8.40;99.90;;;;;;4899832;28;1428729;-83
2022/12/22 15:30:38;;;;;;;0.60;0.60;;;8.50;99.90;;;;;;4933261;28;20171;-82
2022/12/22 15:33:13;;;;;;;0.70;0.70;;;8.40;99.90;;;;;;4952412;28;20053;-84
2022/12/22 15:35:39;;;;;;;0.60;0.60;;;8.50;99.90;;;;;;4946619;28;20041;-82
2022/12/22 15:38:11;;;;;;;0.60;0.60;;;8.50;99.90;;;;;;4952819;28;20049;-82
2022/12/22 15:40:37;;;;;;;0.70;0.70;;;8.60;99.90;;;;;;4949064;28;20841;-81
2022/12/22 15:43:03;;;;;;;0.60;0.60;;;8.70;99.90;;;;;;4952267;28;20056;-82
2022/12/22 15:45:29;;;;;;;0.60;0.60;;;8.60;99.90;;;;;;4945104;28;20104;-81
2022/12/22 15:47:55;;;;;;;0.60;0.60;;;8.70;99.90;;;;;;4930445;28;20044;-82
2022/12/22 15:50:34;;;;;;;0.70;0.70;;;8.60;99.90;;;;;;4944041;28;20052;-82
2022/12/22 15:53:00;;;;;;;0.60;0.60;;;8.50;99.90;;;;;;4945343;28;21077;-82
2022/12/22 15:55:26;;;;;;;0.60;0.60;;;8.40;99.90;;;;;;4955840;28;20147;-80
2022/12/22 15:57:56;;;;;;;0.60;0.60;;;8.30;99.90;;;;;;4945459;28;20660;-81
2022/12/22 16:00:22;;;;;;;0.60;0.60;;;8.30;99.90;;;;;;4953338;28;20789;-81
2022/12/22 16:02:49;;;;;;;0.60;0.60;;;8.30;99.90;;;;;;4953770;28;20080;-81
2022/12/22 16:05:15;;;;;;;0.60;0.60;;;8.40;99.90;;;;;;4933452;28;20420;-82
2022/12/22 16:07:43;;;;;;;0.60;0.60;;;8.40;99.90;;;;;;4951618;28;20040;-82
2022/12/22 16:10:27;;;;;;;0.60;0.60;;;8.50;99.90;;;;;;4953717;28;20455;-82
2022/12/22 16:12:59;;;;;;;0.60;0.60;;;8.40;99.90;;;;;;4955869;28;20126;-82
2022/12/22 16:15:30;;;;;;;0.60;0.60;;;8.40;99.90;;;;;;4950005;28;20539;-81
2022/12/22 16:18:00;;;;;;;0.60;0.60;;;8.40;99.90;;;;;;4956022;28;20152;-81
2022/12/22 16:20:30;;;;;;;0.60;0.60;;;8.40;99.90;;;;;;4946420;28;20052;-82
2022/12/22 16:22:57;;;;;;;0.60;0.60;;;8.40;99.90;;;;;;4928499;28;20450;-81
2022/12/22 16:25:32;;;;;;;0.60;0.60;;;8.40;99.90;;;;;;4946047;28;20083;-82
2022/12/22 16:28:02;;;;;;;0.60;0.60;;;8.40;99.90;;;;;;4953469;28;20072;-82
2022/12/22 16:30:31;;;;;;;0.60;0.60;;;8.40;99.90;;;;;;4951411;28;21128;-82
2022/12/22 16:32:56;;;;;;;0.60;0.60;;;8.40;99.90;;;;;;4947607;28;20102;-82
2022/12/22 16:35:26;;;;;;;0.80;0.80;;;8.40;99.90;;;;;;4955100;28;20045;-82
2022/12/22 16:37:55;;;;;;;0.60;0.60;;;8.50;99.90;;;;;;4934230;28;20033;-81
2022/12/22 16:40:20;;;;;;;0.60;0.60;;;8.40;99.90;;;;;;4950735;28;20057;-82
2022/12/22 16:43:15;;;;;;;0.60;0.60;;;8.40;99.90;;;;;;4948379;28;20676;-82
2022/12/22 16:45:43;;;;;;;0.60;0.60;;;8.50;99.90;;;;;;4935830;28;20956;-81
2022/12/22 16:48:20;;;;;;;0.60;0.60;;;8.50;99.90;;;;;;4948122;28;20133;-82
2022/12/22 16:50:47;;;;;;;0.60;0.60;;;8.50;99.90;;;;;;4957329;28;20418;-83
2022/12/22 16:53:13;;;;;;;0.60;0.60;;;8.60;99.90;;;;;;4949925;28;20060;-82
2022/12/22 16:55:40;;;;;;;0.60;0.60;;;8.50;99.90;;;;;;4947677;28;20125;-82
2022/12/22 16:58:07;;;;;;;0.60;0.60;;;8.50;99.90;;;;;;4948538;28;20462;-82
2022/12/22 17:00:35;;;;;;;0.60;0.60;;;8.50;99.90;;;;;;4945695;28;20045;-82